sensor_id;sensor_type;location;lat;lon;timestamp;temperature;humidity
10541;DHT22;5318;50.844;4.272;2022-07-24T00:00:21;22.10;99.90
10541;DHT22;5318;50.844;4.272;2022-07-24T00:02:58;21.80;99.90
10541;DHT22;5318;50.844;4.272;2022-07-24T00:05:35;21.80;99.90
10541;DHT22;5318;50.844;4.272;2022-07-24T00:08:12;22.10;99.90
10541;DHT22;5318;50.844;4.272;2022-07-24T00:10:48;22.20;99.90
10541;DHT22;5318;50.844;4.272;2022-07-24T00:13:25;22.20;99.90
10541;DHT22;5318;50.844;4.272;2022-07-24T00:16:01;22.10;99.90
10541;DHT22;5318;50.844;4.272;2022-07-24T00:18:39;22.00;99.90
10541;DHT22;5318;50.844;4.272;2022-07-24T00:21:15;21.90;99.90
10541;DHT22;5318;50.844;4.272;2022-07-24T00:23:52;22.00;99.90
10541;DHT22;5318;50.844;4.272;2022-07-24T00:26:28;22.00;99.90
10541;DHT22;5318;50.844;4.272;2022-07-24T00:29:05;21.50;99.90
10541;DHT22;5318;50.844;4.272;2022-07-24T00:31:42;21.30;99.90
10541;DHT22;5318;50.844;4.272;2022-07-24T00:34:19;21.70;99.90
10541;DHT22;5318;50.844;4.272;2022-07-24T00:36:56;21.70;99.90
10541;DHT22;5318;50.844;4.272;2022-07-24T00:39:32;21.70;99.90
10541;DHT22;5318;50.844;4.272;2022-07-24T00:42:09;21.50;99.90
10541;DHT22;5318;50.844;4.272;2022-07-24T00:44:45;21.10;99.90
10541;DHT22;5318;50.844;4.272;2022-07-24T00:47:23;21.20;99.90
10541;DHT22;5318;50.844;4.272;2022-07-24T00:49:59;21.20;99.90
10541;DHT22;5318;50.844;4.272;2022-07-24T00:52:36;21.40;99.90
10541;DHT22;5318;50.844;4.272;2022-07-24T00:55:13;21.10;99.90
10541;DHT22;5318;50.844;4.272;2022-07-24T00:57:50;21.00;99.90
10541;DHT22;5318;50.844;4.272;2022-07-24T01:00:26;21.20;99.90
10541;DHT22;5318;50.844;4.272;2022-07-24T01:03:03;21.20;99.90
10541;DHT22;5318;50.844;4.272;2022-07-24T01:05:39;20.90;99.90
10541;DHT22;5318;50.844;4.272;2022-07-24T01:08:17;21.20;99.90
10541;DHT22;5318;50.844;4.272;2022-07-24T01:10:53;21.20;99.90
10541;DHT22;5318;50.844;4.272;2022-07-24T01:13:30;21.20;99.90
10541;DHT22;5318;50.844;4.272;2022-07-24T01:16:07;21.30;99.90
10541;DHT22;5318;50.844;4.272;2022-07-24T01:18:43;20.80;99.90
10541;DHT22;5318;50.844;4.272;2022-07-24T01:21:20;20.50;99.90
10541;DHT22;5318;50.844;4.272;2022-07-24T01:23:57;20.70;99.90
10541;DHT22;5318;50.844;4.272;2022-07-24T01:26:34;20.70;99.90
10541;DHT22;5318;50.844;4.272;2022-07-24T01:29:11;20.80;99.90
10541;DHT22;5318;50.844;4.272;2022-07-24T01:31:47;20.90;99.90
10541;DHT22;5318;50.844;4.272;2022-07-24T01:34:23;21.00;99.90
10541;DHT22;5318;50.844;4.272;2022-07-24T01:37:00;20.90;99.90
10541;DHT22;5318;50.844;4.272;2022-07-24T01:39:37;20.90;99.90
10541;DHT22;5318;50.844;4.272;2022-07-24T01:42:14;20.90;99.90
10541;DHT22;5318;50.844;4.272;2022-07-24T01:44:51;21.00;99.90
10541;DHT22;5318;50.844;4.272;2022-07-24T01:47:27;20.80;99.90
10541;DHT22;5318;50.844;4.272;2022-07-24T01:50:04;20.80;99.90
10541;DHT22;5318;50.844;4.272;2022-07-24T01:52:40;20.30;99.90
10541;DHT22;5318;50.844;4.272;2022-07-24T01:55:17;20.40;99.90
10541;DHT22;5318;50.844;4.272;2022-07-24T01:57:53;20.10;99.90
10541;DHT22;5318;50.844;4.272;2022-07-24T02:00:31;20.60;99.90
10541;DHT22;5318;50.844;4.272;2022-07-24T02:03:07;20.50;99.90
10541;DHT22;5318;50.844;4.272;2022-07-24T02:05:44;20.70;99.90
10541;DHT22;5318;50.844;4.272;2022-07-24T02:08:21;20.30;99.90
10541;DHT22;5318;50.844;4.272;2022-07-24T02:10:57;20.10;99.90
10541;DHT22;5318;50.844;4.272;2022-07-24T02:13:34;20.40;99.90
10541;DHT22;5318;50.844;4.272;2022-07-24T02:16:11;20.30;99.90
10541;DHT22;5318;50.844;4.272;2022-07-24T02:18:48;20.40;99.90
10541;DHT22;5318;50.844;4.272;2022-07-24T02:21:24;20.30;99.90
10541;DHT22;5318;50.844;4.272;2022-07-24T02:24:01;20.00;99.90
10541;DHT22;5318;50.844;4.272;2022-07-24T02:26:37;20.10;99.90
10541;DHT22;5318;50.844;4.272;2022-07-24T02:29:15;20.30;99.90
10541;DHT22;5318;50.844;4.272;2022-07-24T02:31:51;20.20;99.90
10541;DHT22;5318;50.844;4.272;2022-07-24T02:34:29;20.10;99.90
10541;DHT22;5318;50.844;4.272;2022-07-24T02:37:05;20.10;99.90
10541;DHT22;5318;50.844;4.272;2022-07-24T02:39:42;19.90;99.90
10541;DHT22;5318;50.844;4.272;2022-07-24T02:42:18;19.90;99.90
10541;DHT22;5318;50.844;4.272;2022-07-24T02:44:55;19.90;99.90
10541;DHT22;5318;50.844;4.272;2022-07-24T02:47:32;19.70;99.90
10541;DHT22;5318;50.844;4.272;2022-07-24T02:50:09;19.50;99.90
10541;DHT22;5318;50.844;4.272;2022-07-24T02:52:46;19.50;99.90
10541;DHT22;5318;50.844;4.272;2022-07-24T02:55:22;19.50;99.90
10541;DHT22;5318;50.844;4.272;2022-07-24T02:57:59;19.50;99.90
10541;DHT22;5318;50.844;4.272;2022-07-24T03:00:35;19.60;99.90
10541;DHT22;5318;50.844;4.272;2022-07-24T03:03:13;20.00;99.90
10541;DHT22;5318;50.844;4.272;2022-07-24T03:05:49;20.00;99.90
10541;DHT22;5318;50.844;4.272;2022-07-24T03:08:26;20.00;99.90
10541;DHT22;5318;50.844;4.272;2022-07-24T03:11:02;20.00;99.90
10541;DHT22;5318;50.844;4.272;2022-07-24T03:13:39;19.80;99.90
10541;DHT22;5318;50.844;4.272;2022-07-24T03:16:15;19.40;99.90
10541;DHT22;5318;50.844;4.272;2022-07-24T03:18:53;19.50;99.90
10541;DHT22;5318;50.844;4.272;2022-07-24T03:21:29;19.50;99.90
10541;DHT22;5318;50.844;4.272;2022-07-24T03:24:06;19.50;99.90
10541;DHT22;5318;50.844;4.272;2022-07-24T03:26:43;19.40;99.90
10541;DHT22;5318;50.844;4.272;2022-07-24T03:29:19;19.10;99.90
10541;DHT22;5318;50.844;4.272;2022-07-24T03:31:57;19.00;99.90
10541;DHT22;5318;50.844;4.272;2022-07-24T03:34:33;19.00;99.90
10541;DHT22;5318;50.844;4.272;2022-07-24T03:37:10;19.00;99.90
10541;DHT22;5318;50.844;4.272;2022-07-24T03:39:46;19.10;99.90
10541;DHT22;5318;50.844;4.272;2022-07-24T03:42:23;19.50;99.90
10541;DHT22;5318;50.844;4.272;2022-07-24T03:44:59;19.70;99.90
10541;DHT22;5318;50.844;4.272;2022-07-24T03:47:37;19.60;99.90
10541;DHT22;5318;50.844;4.272;2022-07-24T03:50:13;19.60;99.90
10541;DHT22;5318;50.844;4.272;2022-07-24T03:52:50;19.50;99.90
10541;DHT22;5318;50.844;4.272;2022-07-24T03:55:27;19.30;99.90
10541;DHT22;5318;50.844;4.272;2022-07-24T03:58:03;18.90;99.90
10541;DHT22;5318;50.844;4.272;2022-07-24T04:00:40;18.80;99.90
10541;DHT22;5318;50.844;4.272;2022-07-24T04:03:17;19.00;99.90
10541;DHT22;5318;50.844;4.272;2022-07-24T04:05:54;19.00;99.90
10541;DHT22;5318;50.844;4.272;2022-07-24T04:08:31;19.00;99.90
10541;DHT22;5318;50.844;4.272;2022-07-24T04:11:07;19.10;99.90
10541;DHT22;5318;50.844;4.272;2022-07-24T04:13:43;19.40;99.90
10541;DHT22;5318;50.844;4.272;2022-07-24T04:16:20;19.10;99.90
10541;DHT22;5318;50.844;4.272;2022-07-24T04:18:57;19.50;99.90
10541;DHT22;5318;50.844;4.272;2022-07-24T04:21:34;19.50;99.90
10541;DHT22;5318;50.844;4.272;2022-07-24T04:24:10;19.60;99.90
10541;DHT22;5318;50.844;4.272;2022-07-24T04:26:47;19.50;99.90
10541;DHT22;5318;50.844;4.272;2022-07-24T04:29:24;19.00;99.90
10541;DHT22;5318;50.844;4.272;2022-07-24T04:32:00;19.10;99.90
10541;DHT22;5318;50.844;4.272;2022-07-24T04:34:37;19.50;99.90
10541;DHT22;5318;50.844;4.272;2022-07-24T04:37:14;19.50;99.90
10541;DHT22;5318;50.844;4.272;2022-07-24T04:39:51;19.60;99.90
10541;DHT22;5318;50.844;4.272;2022-07-24T04:42:27;19.60;99.90
10541;DHT22;5318;50.844;4.272;2022-07-24T04:45:04;19.60;99.90
10541;DHT22;5318;50.844;4.272;2022-07-24T04:47:40;19.60;99.90
10541;DHT22;5318;50.844;4.272;2022-07-24T04:50:17;19.20;99.90
10541;DHT22;5318;50.844;4.272;2022-07-24T04:52:54;19.30;99.90
10541;DHT22;5318;50.844;4.272;2022-07-24T04:55:30;19.40;99.90
10541;DHT22;5318;50.844;4.272;2022-07-24T04:58:07;19.40;99.90
10541;DHT22;5318;50.844;4.272;2022-07-24T05:00:43;19.40;99.90
10541;DHT22;5318;50.844;4.272;2022-07-24T05:03:20;19.40;99.90
10541;DHT22;5318;50.844;4.272;2022-07-24T05:05:57;19.10;99.90
10541;DHT22;5318;50.844;4.272;2022-07-24T05:08:33;19.50;99.90
10541;DHT22;5318;50.844;4.272;2022-07-24T05:11:10;19.70;99.90
10541;DHT22;5318;50.844;4.272;2022-07-24T05:13:46;19.70;99.90
10541;DHT22;5318;50.844;4.272;2022-07-24T05:16:23;19.70;99.90
10541;DHT22;5318;50.844;4.272;2022-07-24T05:18:59;19.40;99.90
10541;DHT22;5318;50.844;4.272;2022-07-24T05:21:36;19.80;99.90
10541;DHT22;5318;50.844;4.272;2022-07-24T05:24:13;19.90;99.90
10541;DHT22;5318;50.844;4.272;2022-07-24T05:26:49;20.00;99.90
10541;DHT22;5318;50.844;4.272;2022-07-24T05:29:27;20.10;99.90
10541;DHT22;5318;50.844;4.272;2022-07-24T05:32:03;20.10;99.90
10541;DHT22;5318;50.844;4.272;2022-07-24T05:34:41;20.00;99.90
10541;DHT22;5318;50.844;4.272;2022-07-24T05:37:17;20.00;99.90
10541;DHT22;5318;50.844;4.272;2022-07-24T05:39:54;20.20;99.90
10541;DHT22;5318;50.844;4.272;2022-07-24T05:42:30;20.30;99.90
10541;DHT22;5318;50.844;4.272;2022-07-24T05:45:07;20.20;99.90
10541;DHT22;5318;50.844;4.272;2022-07-24T05:47:43;20.30;99.90
10541;DHT22;5318;50.844;4.272;2022-07-24T05:50:20;20.60;99.90
10541;DHT22;5318;50.844;4.272;2022-07-24T05:52:57;21.40;99.90
10541;DHT22;5318;50.844;4.272;2022-07-24T05:55:33;23.00;99.90
10541;DHT22;5318;50.844;4.272;2022-07-24T05:58:10;25.30;99.90
10541;DHT22;5318;50.844;4.272;2022-07-24T06:00:46;27.50;99.90
10541;DHT22;5318;50.844;4.272;2022-07-24T06:03:30;29.20;99.90
10541;DHT22;5318;50.844;4.272;2022-07-24T06:06:07;31.00;99.90
10541;DHT22;5318;50.844;4.272;2022-07-24T06:08:43;32.80;99.90
10541;DHT22;5318;50.844;4.272;2022-07-24T06:11:20;34.20;96.20
10541;DHT22;5318;50.844;4.272;2022-07-24T06:13:57;36.10;90.40
10541;DHT22;5318;50.844;4.272;2022-07-24T06:16:34;36.00;90.30
10541;DHT22;5318;50.844;4.272;2022-07-24T06:19:10;36.90;86.50
10541;DHT22;5318;50.844;4.272;2022-07-24T06:21:47;37.40;82.90
10541;DHT22;5318;50.844;4.272;2022-07-24T06:24:24;37.80;80.60
10541;DHT22;5318;50.844;4.272;2022-07-24T06:27:00;38.10;77.80
10541;DHT22;5318;50.844;4.272;2022-07-24T06:29:37;37.40;77.00
10541;DHT22;5318;50.844;4.272;2022-07-24T06:32:14;37.40;77.00
10541;DHT22;5318;50.844;4.272;2022-07-24T06:34:51;37.70;75.10
10541;DHT22;5318;50.844;4.272;2022-07-24T06:37:27;38.30;84.40
10541;DHT22;5318;50.844;4.272;2022-07-24T06:40:04;38.80;80.40
10541;DHT22;5318;50.844;4.272;2022-07-24T06:42:41;39.60;70.00
10541;DHT22;5318;50.844;4.272;2022-07-24T06:45:17;40.50;68.00
10541;DHT22;5318;50.844;4.272;2022-07-24T06:47:54;41.10;65.70
10541;DHT22;5318;50.844;4.272;2022-07-24T06:50:30;41.90;64.60
10541;DHT22;5318;50.844;4.272;2022-07-24T06:53:07;42.70;61.50
10541;DHT22;5318;50.844;4.272;2022-07-24T06:55:43;43.50;59.40
10541;DHT22;5318;50.844;4.272;2022-07-24T06:58:20;44.00;57.70
10541;DHT22;5318;50.844;4.272;2022-07-24T07:00:57;44.30;55.90
10541;DHT22;5318;50.844;4.272;2022-07-24T07:03:33;44.60;55.60
10541;DHT22;5318;50.844;4.272;2022-07-24T07:09:03;45.40;54.30
10541;DHT22;5318;50.844;4.272;2022-07-24T07:11:31;46.00;51.90
10541;DHT22;5318;50.844;4.272;2022-07-24T07:13:57;45.90;51.80
10541;DHT22;5318;50.844;4.272;2022-07-24T07:16:24;45.80;51.20
10541;DHT22;5318;50.844;4.272;2022-07-24T07:18:50;45.90;52.00
10541;DHT22;5318;50.844;4.272;2022-07-24T07:21:17;46.40;50.90
10541;DHT22;5318;50.844;4.272;2022-07-24T07:23:43;46.70;50.00
10541;DHT22;5318;50.844;4.272;2022-07-24T07:26:10;46.90;49.80
10541;DHT22;5318;50.844;4.272;2022-07-24T07:28:37;47.20;49.10
10541;DHT22;5318;50.844;4.272;2022-07-24T07:31:03;47.60;48.50
10541;DHT22;5318;50.844;4.272;2022-07-24T07:33:30;48.50;47.50
10541;DHT22;5318;50.844;4.272;2022-07-24T07:35:56;48.70;46.50
10541;DHT22;5318;50.844;4.272;2022-07-24T07:38:23;48.10;46.00
10541;DHT22;5318;50.844;4.272;2022-07-24T07:40:49;48.20;45.70
10541;DHT22;5318;50.844;4.272;2022-07-24T07:43:16;48.40;45.90
10541;DHT22;5318;50.844;4.272;2022-07-24T07:45:42;48.60;45.60
10541;DHT22;5318;50.844;4.272;2022-07-24T07:48:09;48.80;44.80
10541;DHT22;5318;50.844;4.272;2022-07-24T07:50:35;48.70;45.10
10541;DHT22;5318;50.844;4.272;2022-07-24T07:53:02;48.70;44.80
10541;DHT22;5318;50.844;4.272;2022-07-24T07:55:29;48.90;44.00
10541;DHT22;5318;50.844;4.272;2022-07-24T07:57:56;50.00;44.50
10541;DHT22;5318;50.844;4.272;2022-07-24T08:00:22;50.00;43.80
10541;DHT22;5318;50.844;4.272;2022-07-24T08:02:49;50.30;43.90
10541;DHT22;5318;50.844;4.272;2022-07-24T08:05:15;50.30;43.40
10541;DHT22;5318;50.844;4.272;2022-07-24T08:07:42;50.20;43.30
10541;DHT22;5318;50.844;4.272;2022-07-24T08:10:09;50.10;43.00
10541;DHT22;5318;50.844;4.272;2022-07-24T08:12:35;49.70;41.90
10541;DHT22;5318;50.844;4.272;2022-07-24T08:15:02;49.50;42.50
10541;DHT22;5318;50.844;4.272;2022-07-24T08:17:28;49.40;43.00
10541;DHT22;5318;50.844;4.272;2022-07-24T08:19:55;49.80;42.40
10541;DHT22;5318;50.844;4.272;2022-07-24T08:22:21;50.20;42.80
10541;DHT22;5318;50.844;4.272;2022-07-24T08:24:48;50.70;41.60
10541;DHT22;5318;50.844;4.272;2022-07-24T08:27:14;50.70;41.60
10541;DHT22;5318;50.844;4.272;2022-07-24T08:29:41;50.00;41.90
10541;DHT22;5318;50.844;4.272;2022-07-24T08:32:07;49.90;42.30
10541;DHT22;5318;50.844;4.272;2022-07-24T08:34:34;49.60;41.90
10541;DHT22;5318;50.844;4.272;2022-07-24T08:37:01;49.70;41.80
10541;DHT22;5318;50.844;4.272;2022-07-24T08:39:27;50.10;42.80
10541;DHT22;5318;50.844;4.272;2022-07-24T08:41:54;50.30;42.40
10541;DHT22;5318;50.844;4.272;2022-07-24T08:44:20;50.10;41.70
10541;DHT22;5318;50.844;4.272;2022-07-24T08:46:47;50.10;42.70
10541;DHT22;5318;50.844;4.272;2022-07-24T08:49:14;50.20;42.80
10541;DHT22;5318;50.844;4.272;2022-07-24T08:51:40;50.80;42.40
10541;DHT22;5318;50.844;4.272;2022-07-24T08:54:07;51.30;43.90
10541;DHT22;5318;50.844;4.272;2022-07-24T08:56:33;51.50;42.20
10541;DHT22;5318;50.844;4.272;2022-07-24T08:58:59;52.00;48.30
10541;DHT22;5318;50.844;4.272;2022-07-24T09:01:26;52.20;49.30
10541;DHT22;5318;50.844;4.272;2022-07-24T09:03:52;52.20;50.00
10541;DHT22;5318;50.844;4.272;2022-07-24T09:06:19;52.20;50.50
10541;DHT22;5318;50.844;4.272;2022-07-24T09:09:01;52.20;51.40
10541;DHT22;5318;50.844;4.272;2022-07-24T09:11:27;52.30;52.20
10541;DHT22;5318;50.844;4.272;2022-07-24T09:13:58;52.40;52.70
10541;DHT22;5318;50.844;4.272;2022-07-24T09:16:24;52.40;52.60
10541;DHT22;5318;50.844;4.272;2022-07-24T09:18:47;51.80;54.80
10541;DHT22;5318;50.844;4.272;2022-07-24T09:21:14;51.60;55.70
10541;DHT22;5318;50.844;4.272;2022-07-24T09:23:40;51.30;70.90
10541;DHT22;5318;50.844;4.272;2022-07-24T09:26:06;51.50;47.10
10541;DHT22;5318;50.844;4.272;2022-07-24T09:31:15;50.80;46.50
10541;DHT22;5318;50.844;4.272;2022-07-24T09:33:41;50.80;46.80
10541;DHT22;5318;50.844;4.272;2022-07-24T09:36:15;51.10;46.80
10541;DHT22;5318;50.844;4.272;2022-07-24T09:38:50;51.30;46.90
10541;DHT22;5318;50.844;4.272;2022-07-24T09:41:22;51.10;46.10
10541;DHT22;5318;50.844;4.272;2022-07-24T09:43:46;50.90;46.40
10541;DHT22;5318;50.844;4.272;2022-07-24T09:46:12;51.10;45.80
10541;DHT22;5318;50.844;4.272;2022-07-24T09:48:39;51.20;45.70
10541;DHT22;5318;50.844;4.272;2022-07-24T09:51:08;51.10;43.90
10541;DHT22;5318;50.844;4.272;2022-07-24T09:53:32;51.00;42.90
10541;DHT22;5318;50.844;4.272;2022-07-24T09:56:05;50.30;42.90
10541;DHT22;5318;50.844;4.272;2022-07-24T09:58:32;50.00;42.90
10541;DHT22;5318;50.844;4.272;2022-07-24T10:00:58;50.00;43.00
10541;DHT22;5318;50.844;4.272;2022-07-24T10:03:25;50.20;43.20
10541;DHT22;5318;50.844;4.272;2022-07-24T10:05:53;49.80;43.40
10541;DHT22;5318;50.844;4.272;2022-07-24T10:08:17;49.60;44.40
10541;DHT22;5318;50.844;4.272;2022-07-24T10:10:44;49.20;44.40
10541;DHT22;5318;50.844;4.272;2022-07-24T10:13:10;48.90;44.20
10541;DHT22;5318;50.844;4.272;2022-07-24T10:15:38;48.60;43.70
10541;DHT22;5318;50.844;4.272;2022-07-24T10:18:15;48.30;43.30
10541;DHT22;5318;50.844;4.272;2022-07-24T10:20:42;47.80;43.90
10541;DHT22;5318;50.844;4.272;2022-07-24T10:23:08;47.30;43.80
10541;DHT22;5318;50.844;4.272;2022-07-24T10:28:13;47.00;43.90
10541;DHT22;5318;50.844;4.272;2022-07-24T10:30:39;46.80;44.20
10541;DHT22;5318;50.844;4.272;2022-07-24T10:33:06;46.60;44.70
10541;DHT22;5318;50.844;4.272;2022-07-24T10:35:32;46.10;43.80
10541;DHT22;5318;50.844;4.272;2022-07-24T10:38:16;44.90;46.00
10541;DHT22;5318;50.844;4.272;2022-07-24T10:40:50;44.90;46.10
10541;DHT22;5318;50.844;4.272;2022-07-24T10:43:17;44.50;45.50
10541;DHT22;5318;50.844;4.272;2022-07-24T10:51:00;43.00;48.00
10541;DHT22;5318;50.844;4.272;2022-07-24T10:53:27;42.80;48.10
10541;DHT22;5318;50.844;4.272;2022-07-24T10:55:53;42.30;48.80
10541;DHT22;5318;50.844;4.272;2022-07-24T10:58:19;41.90;49.10
10541;DHT22;5318;50.844;4.272;2022-07-24T11:00:49;41.50;49.10
10541;DHT22;5318;50.844;4.272;2022-07-24T11:03:25;41.20;49.70
10541;DHT22;5318;50.844;4.272;2022-07-24T11:06:04;40.20;51.50
10541;DHT22;5318;50.844;4.272;2022-07-24T11:08:30;40.10;51.30
10541;DHT22;5318;50.844;4.272;2022-07-24T11:10:58;39.60;52.50
10541;DHT22;5318;50.844;4.272;2022-07-24T11:18:38;38.70;53.20
10541;DHT22;5318;50.844;4.272;2022-07-24T11:21:04;38.50;53.80
10541;DHT22;5318;50.844;4.272;2022-07-24T11:23:30;38.10;54.00
10541;DHT22;5318;50.844;4.272;2022-07-24T11:28:47;37.20;57.30
10541;DHT22;5318;50.844;4.272;2022-07-24T11:31:09;37.20;56.10
10541;DHT22;5318;50.844;4.272;2022-07-24T11:33:36;37.00;57.10
10541;DHT22;5318;50.844;4.272;2022-07-24T11:36:06;36.60;57.00
10541;DHT22;5318;50.844;4.272;2022-07-24T11:38:29;36.50;57.50
10541;DHT22;5318;50.844;4.272;2022-07-24T11:41:04;36.40;56.10
10541;DHT22;5318;50.844;4.272;2022-07-24T11:43:33;36.30;57.50
10541;DHT22;5318;50.844;4.272;2022-07-24T11:45:57;36.20;57.50
10541;DHT22;5318;50.844;4.272;2022-07-24T11:48:24;36.10;57.20
10541;DHT22;5318;50.844;4.272;2022-07-24T11:51:01;36.00;57.50
10541;DHT22;5318;50.844;4.272;2022-07-24T11:53:17;35.50;61.70
10541;DHT22;5318;50.844;4.272;2022-07-24T11:55:43;35.30;67.90
10541;DHT22;5318;50.844;4.272;2022-07-24T11:58:10;34.90;58.10
10541;DHT22;5318;50.844;4.272;2022-07-24T12:00:38;34.50;56.00
10541;DHT22;5318;50.844;4.272;2022-07-24T12:03:05;34.60;65.00
10541;DHT22;5318;50.844;4.272;2022-07-24T12:05:33;34.20;60.80
10541;DHT22;5318;50.844;4.272;2022-07-24T12:07:59;34.10;61.60
10541;DHT22;5318;50.844;4.272;2022-07-24T12:10:25;33.90;61.40
10541;DHT22;5318;50.844;4.272;2022-07-24T12:12:52;33.60;58.10
10541;DHT22;5318;50.844;4.272;2022-07-24T12:15:18;33.50;60.10
10541;DHT22;5318;50.844;4.272;2022-07-24T12:20:27;33.30;59.70
10541;DHT22;5318;50.844;4.272;2022-07-24T12:22:50;33.30;59.40
10541;DHT22;5318;50.844;4.272;2022-07-24T12:25:16;33.30;59.10
10541;DHT22;5318;50.844;4.272;2022-07-24T12:27:44;33.10;59.20
10541;DHT22;5318;50.844;4.272;2022-07-24T12:30:26;32.90;61.30
10541;DHT22;5318;50.844;4.272;2022-07-24T12:33:04;32.70;61.00
10541;DHT22;5318;50.844;4.272;2022-07-24T12:35:31;32.70;61.00
10541;DHT22;5318;50.844;4.272;2022-07-24T12:37:57;32.80;61.00
10541;DHT22;5318;50.844;4.272;2022-07-24T12:40:24;32.70;60.70
10541;DHT22;5318;50.844;4.272;2022-07-24T12:43:07;32.80;61.20
10541;DHT22;5318;50.844;4.272;2022-07-24T12:45:31;32.80;61.00
10541;DHT22;5318;50.844;4.272;2022-07-24T12:48:15;32.80;61.20
10541;DHT22;5318;50.844;4.272;2022-07-24T12:50:37;32.60;61.10
10541;DHT22;5318;50.844;4.272;2022-07-24T12:53:07;32.60;61.50
10541;DHT22;5318;50.844;4.272;2022-07-24T12:55:30;32.60;62.40
10541;DHT22;5318;50.844;4.272;2022-07-24T12:58:03;32.50;62.20
10541;DHT22;5318;50.844;4.272;2022-07-24T13:00:26;32.40;62.20
10541;DHT22;5318;50.844;4.272;2022-07-24T13:02:52;32.40;61.70
10541;DHT22;5318;50.844;4.272;2022-07-24T13:05:41;32.40;63.50
10541;DHT22;5318;50.844;4.272;2022-07-24T13:08:07;32.30;62.60
10541;DHT22;5318;50.844;4.272;2022-07-24T13:10:34;32.50;62.20
10541;DHT22;5318;50.844;4.272;2022-07-24T13:13:00;32.70;63.10
10541;DHT22;5318;50.844;4.272;2022-07-24T13:15:27;32.80;62.30
10541;DHT22;5318;50.844;4.272;2022-07-24T13:17:53;32.90;61.40
10541;DHT22;5318;50.844;4.272;2022-07-24T13:20:20;33.00;62.00
10541;DHT22;5318;50.844;4.272;2022-07-24T13:22:46;32.90;61.80
10541;DHT22;5318;50.844;4.272;2022-07-24T13:25:13;32.90;61.70
10541;DHT22;5318;50.844;4.272;2022-07-24T13:27:39;32.80;62.60
10541;DHT22;5318;50.844;4.272;2022-07-24T13:30:06;32.80;63.50
10541;DHT22;5318;50.844;4.272;2022-07-24T13:32:33;32.90;62.80
10541;DHT22;5318;50.844;4.272;2022-07-24T13:35:02;32.90;63.10
10541;DHT22;5318;50.844;4.272;2022-07-24T13:37:29;33.00;63.10
10541;DHT22;5318;50.844;4.272;2022-07-24T13:39:56;33.10;62.90
10541;DHT22;5318;50.844;4.272;2022-07-24T13:42:25;33.00;62.70
10541;DHT22;5318;50.844;4.272;2022-07-24T13:44:52;32.80;62.00
10541;DHT22;5318;50.844;4.272;2022-07-24T13:47:18;32.90;62.10
10541;DHT22;5318;50.844;4.272;2022-07-24T13:49:45;33.00;62.10
10541;DHT22;5318;50.844;4.272;2022-07-24T13:52:11;32.80;63.00
10541;DHT22;5318;50.844;4.272;2022-07-24T13:54:38;33.00;63.30
10541;DHT22;5318;50.844;4.272;2022-07-24T13:57:07;33.00;62.40
10541;DHT22;5318;50.844;4.272;2022-07-24T13:59:34;32.90;62.80
10541;DHT22;5318;50.844;4.272;2022-07-24T14:02:00;33.00;63.40
10541;DHT22;5318;50.844;4.272;2022-07-24T14:04:27;32.80;61.80
10541;DHT22;5318;50.844;4.272;2022-07-24T14:06:56;32.80;63.40
10541;DHT22;5318;50.844;4.272;2022-07-24T14:09:20;32.80;63.30
10541;DHT22;5318;50.844;4.272;2022-07-24T14:11:46;32.50;62.60
10541;DHT22;5318;50.844;4.272;2022-07-24T14:14:13;32.60;63.80
10541;DHT22;5318;50.844;4.272;2022-07-24T14:16:39;32.80;63.20
10541;DHT22;5318;50.844;4.272;2022-07-24T14:19:06;32.80;62.00
10541;DHT22;5318;50.844;4.272;2022-07-24T14:21:32;32.70;62.50
10541;DHT22;5318;50.844;4.272;2022-07-24T14:23:59;32.80;62.20
10541;DHT22;5318;50.844;4.272;2022-07-24T14:26:26;32.80;62.90
10541;DHT22;5318;50.844;4.272;2022-07-24T14:28:53;32.80;63.20
10541;DHT22;5318;50.844;4.272;2022-07-24T14:31:21;32.70;63.00
10541;DHT22;5318;50.844;4.272;2022-07-24T14:33:47;32.90;61.90
10541;DHT22;5318;50.844;4.272;2022-07-24T14:36:16;33.00;62.80
10541;DHT22;5318;50.844;4.272;2022-07-24T14:38:43;32.90;62.50
10541;DHT22;5318;50.844;4.272;2022-07-24T14:41:17;33.00;62.00
10541;DHT22;5318;50.844;4.272;2022-07-24T14:43:43;33.10;62.20
10541;DHT22;5318;50.844;4.272;2022-07-24T14:46:10;33.10;62.30
10541;DHT22;5318;50.844;4.272;2022-07-24T14:48:37;33.30;61.80
10541;DHT22;5318;50.844;4.272;2022-07-24T14:51:04;33.30;61.70
10541;DHT22;5318;50.844;4.272;2022-07-24T14:53:30;33.10;61.60
10541;DHT22;5318;50.844;4.272;2022-07-24T14:55:57;33.10;62.30
10541;DHT22;5318;50.844;4.272;2022-07-24T14:58:23;33.20;62.20
10541;DHT22;5318;50.844;4.272;2022-07-24T15:00:50;33.20;62.30
10541;DHT22;5318;50.844;4.272;2022-07-24T15:03:16;33.10;62.20
10541;DHT22;5318;50.844;4.272;2022-07-24T15:05:43;33.10;63.40
10541;DHT22;5318;50.844;4.272;2022-07-24T15:08:10;33.20;62.20
10541;DHT22;5318;50.844;4.272;2022-07-24T15:10:37;33.20;62.00
10541;DHT22;5318;50.844;4.272;2022-07-24T15:13:03;33.40;61.60
10541;DHT22;5318;50.844;4.272;2022-07-24T15:15:30;33.40;61.80
10541;DHT22;5318;50.844;4.272;2022-07-24T15:17:56;33.40;61.40
10541;DHT22;5318;50.844;4.272;2022-07-24T15:20:23;33.50;61.10
10541;DHT22;5318;50.844;4.272;2022-07-24T15:22:49;33.40;60.40
10541;DHT22;5318;50.844;4.272;2022-07-24T15:25:16;33.30;60.70
10541;DHT22;5318;50.844;4.272;2022-07-24T15:27:42;33.20;61.60
10541;DHT22;5318;50.844;4.272;2022-07-24T15:30:09;33.10;61.90
10541;DHT22;5318;50.844;4.272;2022-07-24T15:32:36;33.20;62.10
10541;DHT22;5318;50.844;4.272;2022-07-24T15:35:02;33.20;61.00
10541;DHT22;5318;50.844;4.272;2022-07-24T15:37:29;33.30;61.70
10541;DHT22;5318;50.844;4.272;2022-07-24T15:39:55;33.50;60.60
10541;DHT22;5318;50.844;4.272;2022-07-24T15:42:22;33.50;60.10
10541;DHT22;5318;50.844;4.272;2022-07-24T15:44:49;33.40;61.00
10541;DHT22;5318;50.844;4.272;2022-07-24T15:47:15;33.40;60.60
10541;DHT22;5318;50.844;4.272;2022-07-24T15:49:42;33.40;60.80
10541;DHT22;5318;50.844;4.272;2022-07-24T15:52:09;33.50;60.80
10541;DHT22;5318;50.844;4.272;2022-07-24T15:54:35;33.50;60.80
10541;DHT22;5318;50.844;4.272;2022-07-24T15:57:02;33.50;60.70
10541;DHT22;5318;50.844;4.272;2022-07-24T15:59:29;33.60;60.90
10541;DHT22;5318;50.844;4.272;2022-07-24T16:01:56;33.30;60.50
10541;DHT22;5318;50.844;4.272;2022-07-24T16:04:22;33.30;60.30
10541;DHT22;5318;50.844;4.272;2022-07-24T16:06:49;33.30;60.30
10541;DHT22;5318;50.844;4.272;2022-07-24T16:09:16;33.30;59.90
10541;DHT22;5318;50.844;4.272;2022-07-24T16:11:42;33.20;59.50
10541;DHT22;5318;50.844;4.272;2022-07-24T16:14:09;33.10;59.10
10541;DHT22;5318;50.844;4.272;2022-07-24T16:16:35;33.10;59.80
10541;DHT22;5318;50.844;4.272;2022-07-24T16:19:02;33.20;60.30
10541;DHT22;5318;50.844;4.272;2022-07-24T16:21:31;33.20;60.60
10541;DHT22;5318;50.844;4.272;2022-07-24T16:23:58;33.40;59.80
10541;DHT22;5318;50.844;4.272;2022-07-24T16:26:24;33.20;59.90
10541;DHT22;5318;50.844;4.272;2022-07-24T16:28:54;33.30;59.90
10541;DHT22;5318;50.844;4.272;2022-07-24T16:31:17;33.30;59.70
10541;DHT22;5318;50.844;4.272;2022-07-24T16:33:44;33.40;59.20